Latest Weather Observations for Longreach

IDQ60801

Issued at 10:02 am EST Friday 6 March 2015 (issued every 30 minutes, with the page automatically refreshed every 10 minutes)

About weather observations | Map of weather stations | Latest weather observations for QLD | Other Formats
Station Details ID: 036031 Name: LONGREACH AERO Lat: -23.44 Lon: 144.28 Height: 192.2 m
Data from the previous 72 hours. | See also: Recent months at Longreach
Date/Time
EST
Temp
°C
App
Temp
°C
Dew
Point
Rel
Hum
%
Delta-T
°C
Wind Press
QNH
hPa
Press
MSL
hPa
Rain
since 9 am
mm
Dir
 
Spd
km/h
Gust
km/h
Spd
kts
Gust
kts
06/10:00am 32.5 25.3 -2.1 10 16.4 SSE 26 37 14 20 1009.1 - 0.0
06/09:30am 31.8 24.3 -1.7 11 15.9 SE 28 35 15 19 1009.3 - 0.0
06/09:00am 30.8 22.3 -2.1 12 15.4 SSE 33 43 18 23 1009.1 1007.9 0.0
06/08:30am 29.8 20.5 -2.0 12 14.8 SE 37 50 20 27 1009.0 - 0.0
06/08:00am 29.0 20.4 -2.2 13 14.4 SSE 33 46 18 25 1008.9 - 0.0
06/07:30am 28.2 20.6 -2.0 14 13.9 SSE 28 33 15 18 1008.9 - 0.0
06/07:00am 27.4 20.2 -1.8 14 13.4 SSE 26 35 14 19 1008.8 - 0.0
06/06:30am 26.6 20.7 -2.5 14 13.1 S 19 22 10 12 1008.5 - 0.0
06/06:00am 26.9 21.0 -2.6 14 13.3 S 19 24 10 13 1008.5 1007.3 0.0
06/05:30am 27.0 21.2 -1.4 15 13.1 S 19 26 10 14 1008.2 - 0.0
06/05:00am 27.4 23.7 2.3 19 12.4 S 11 13 6 7 1007.7 - 0.0
06/04:30am 28.0 24.0 2.8 19 12.6 SSE 13 17 7 9 1007.6 - 0.0
06/04:00am 28.6 25.3 4.7 22 12.4 S 11 13 6 7 1007.6 - 0.0
06/03:30am 29.4 25.8 5.0 21 12.8 S 13 15 7 8 1007.4 - 0.0
06/03:00am 30.1 25.8 5.4 21 13.1 S 17 24 9 13 1007.0 1005.8 0.0
06/02:30am 30.5 26.3 5.8 21 13.2 S 17 22 9 12 1007.0 - 0.0
06/02:00am 30.8 26.7 6.4 21 13.2 S 17 20 9 11 1007.1 - 0.0
06/01:30am 31.3 27.2 6.1 20 13.6 S 17 22 9 12 1007.3 - 0.0
06/01:00am 32.0 27.5 5.9 19 14.1 S 19 26 10 14 1007.5 - 0.0
06/12:30am 32.5 27.8 5.9 19 14.4 SSE 20 28 11 15 1007.7 - 0.0
06/12:00am 33.2 28.1 6.0 18 14.8 S 22 30 12 16 1007.6 1006.4 0.0
 
Date/Time
EST
Temp
°C
App
Temp
°C
Dew
Point
Rel
Hum
%
Delta-T
°C
Wind Press
QNH
hPa
Press
MSL
hPa
Rain
since 9 am
mm
Dir
 
Spd
km/h
Gust
km/h
Spd
kts
Gust
kts
05/11:30pm 33.8 28.7 5.9 17 15.2 S 22 30 12 16 1007.6 - 0.0
05/11:00pm 34.3 29.8 6.3 17 15.4 S 19 28 10 15 1007.5 - 0.0
05/10:30pm 34.7 30.4 7.1 18 15.4 S 19 26 10 14 1007.4 - 0.0
05/10:00pm 35.4 31.0 6.6 17 16.0 S 19 26 10 14 1007.2 - 0.0
05/09:30pm 35.9 31.3 6.3 16 16.4 S 20 28 11 15 1006.9 - 0.0
05/09:00pm 36.7 32.5 5.7 15 17.1 S 17 28 9 15 1006.6 1005.3 0.0
05/08:30pm 36.5 32.9 6.6 16 16.7 S 15 20 8 11 1006.2 - 0.0
05/08:00pm 36.4 35.2 10.3 20 15.4 SSE 7 9 4 5 1005.7 - 0.0
05/07:30pm 37.2 35.7 10.7 20 15.7 SSE 9 11 5 6 1005.4 - 0.0
05/07:00pm 38.7 35.1 8.3 16 17.5 SSE 17 22 9 12 1005.3 - 0.0
05/06:30pm 39.5 36.0 7.4 14 18.4 SSE 15 20 8 11 1005.0 - 0.0
05/06:00pm 39.9 36.0 8.6 15 18.3 SE 19 26 10 14 1005.0 1003.7 0.0
05/05:30pm 40.9 38.8 8.1 14 19.1 SE 9 15 5 8 1004.9 - 0.0
05/05:00pm 40.9 38.1 8.5 14 18.9 ESE 13 22 7 12 1004.9 - 0.0
05/04:30pm 40.5 37.4 10.4 16 18.0 ESE 17 20 9 11 1005.1 - 0.0
05/04:00pm 41.7 38.4 8.2 13 19.6 S 15 20 8 11 1005.3 - 0.0
05/03:30pm 40.7 37.6 9.0 15 18.6 SSE 15 26 8 14 1005.8 - 0.0
05/03:00pm 40.5 36.3 8.2 14 18.8 S 20 28 11 15 1006.3 1005.0 0.0
05/02:30pm 40.4 36.6 9.0 15 18.4 ESE 19 30 10 16 1006.7 - 0.0
05/02:00pm 40.4 37.8 9.2 15 18.4 SE 13 20 7 11 1007.3 - 0.0
05/01:30pm 39.9 37.3 9.4 16 18.0 SSE 13 26 7 14 1007.9 - 0.0
05/01:00pm 39.1 36.9 9.3 16 17.5 N 11 19 6 10 1008.4 - 0.0
05/12:30pm 38.5 36.5 8.8 16 17.3 NW 9 15 5 8 1009.0 - 0.0
05/12:00pm 37.6 35.5 9.9 18 16.3 SSE 11 17 6 9 1009.9 1008.6 0.0
05/11:30am 37.5 35.7 9.5 18 16.4 NNE 9 11 5 6 1010.4 - 0.0
05/11:00am 36.3 34.4 8.9 19 15.8 SW 9 17 5 9 1010.9 - 0.0
05/10:30am 36.2 33.7 8.4 18 15.9 NNW 11 17 6 9 1011.3 - 0.0
05/10:00am 34.9 32.6 8.9 20 14.9 N 11 17 6 9 1011.4 - 0.0
05/09:30am 33.8 31.4 8.6 21 14.3 NNW 11 17 6 9 1011.6 - 0.0
05/09:00am 32.5 30.2 9.1 23 13.3 N 11 17 6 9 1011.6 1010.4 0.0
05/08:30am 31.3 29.1 9.3 25 12.5 N 11 15 6 8 1011.5 - 0.0
05/08:00am 29.6 26.1 8.8 27 11.6 NNE 17 20 9 11 1011.2 - 0.0
05/07:30am 28.3 26.2 8.3 28 11.0 NNE 9 13 5 7 1011.1 - 0.0
05/07:00am 26.8 25.1 8.3 31 10.1 NE 7 9 4 5 1010.5 - 0.0
05/06:30am 25.4 22.9 8.0 33 9.4 NE 11 13 6 7 1010.1 - 0.0
05/06:00am 25.3 22.8 8.1 33 9.3 NE 11 15 6 8 1009.7 1008.5 0.0
05/05:30am 25.3 22.6 8.8 35 9.0 ENE 13 15 7 8 1009.4 - 0.0
05/05:00am 26.0 24.1 8.9 34 9.4 ENE 9 13 5 7 1009.1 - 0.0
05/04:30am 26.1 23.9 9.3 34 9.3 ENE 11 11 6 6 1008.8 - 0.0
05/04:00am 26.5 23.9 9.4 34 9.5 ENE 13 15 7 8 1008.8 - 0.0
05/03:30am 27.4 24.4 9.3 32 10.1 NE 15 15 8 8 1008.8 - 0.0
05/03:00am 27.6 24.6 9.3 31 10.2 NE 15 15 8 8 1009.0 1007.8 0.0
05/02:30am 27.5 25.0 9.7 32 10.0 NE 13 13 7 7 1009.3 - 0.0
05/02:00am 27.7 25.3 10.0 33 10.0 NE 13 15 7 8 1009.6 - 0.0
05/01:30am 28.3 25.9 10.2 32 10.3 NE 13 13 7 7 1009.9 - 0.0
05/01:00am 28.7 26.8 10.5 32 10.4 NNE 11 11 6 6 1010.1 - 0.0
05/12:30am 29.1 27.6 10.4 31 10.7 NE 9 9 5 5 1010.2 - 0.0
05/12:00am 30.5 28.1 10.1 28 11.7 NE 13 13 7 7 1010.4 1009.1 0.0
 
Date/Time
EST
Temp
°C
App
Temp
°C
Dew
Point
Rel
Hum
%
Delta-T
°C
Wind Press
QNH
hPa
Press
MSL
hPa
Rain
since 9 am
mm
Dir
 
Spd
km/h
Gust
km/h
Spd
kts
Gust
kts
04/11:30pm 30.5 29.8 11.3 30 11.2 NNE 6 9 3 5 1010.4 - 0.0
04/11:00pm 31.9 30.1 10.8 27 12.3 NE 11 13 6 7 1010.3 - 0.0
04/10:30pm 33.4 30.7 10.2 24 13.5 ENE 15 19 8 10 1010.3 - 0.0
04/10:00pm 31.9 30.8 10.8 27 12.3 ESE 7 7 4 4 1010.1 - 0.0
04/09:30pm 33.0 32.9 13.9 31 11.7 SE 7 9 4 5 1010.0 - 0.0
04/09:00pm 34.0 33.4 13.6 29 12.5 S 9 9 5 5 1009.7 1008.5 0.0
04/08:30pm 34.7 34.3 14.2 29 12.7 SSE 9 9 5 5 1009.5 - 0.0
04/08:00pm 35.4 34.6 13.0 26 13.7 SSE 9 9 5 5 1009.2 - 0.0
04/07:30pm 36.8 34.4 11.3 21 15.3 SE 15 17 8 9 1008.8 - 0.0
04/07:00pm 37.4 35.3 11.0 20 15.8 SE 13 19 7 10 1008.5 - 0.0
04/06:30pm 38.1 34.2 10.9 19 16.3 SE 22 30 12 16 1008.3 - 0.0
04/06:00pm 38.8 34.3 10.2 18 17.0 ESE 24 33 13 18 1008.1 1006.9 0.0
04/05:30pm 39.1 34.1 9.7 17 17.3 ESE 26 33 14 18 1008.0 - 0.0
04/05:00pm 39.2 35.7 10.1 17 17.3 SE 19 33 10 18 1008.1 - 0.0
04/04:30pm 39.4 36.0 9.3 16 17.7 ESE 17 28 9 15 1008.2 - 0.0
04/04:00pm 39.1 36.1 10.5 18 17.1 S 17 28 9 15 1008.5 - 0.0
04/03:30pm 38.9 36.5 10.1 17 17.1 S 13 17 7 9 1008.8 - 0.0
04/03:00pm 38.7 35.4 9.4 17 17.2 S 17 28 9 15 1009.2 1008.0 0.0
04/02:30pm 38.1 34.3 9.7 18 16.7 E 20 32 11 17 1009.7 - 0.0
04/02:00pm 38.3 34.8 8.9 17 17.1 E 17 30 9 16 1010.4 - 0.0
04/01:30pm 37.3 33.6 9.4 18 16.3 SE 19 28 10 15 1011.0 - 0.0
04/01:00pm 37.2 34.7 9.7 19 16.1 NE 13 22 7 12 1011.5 - 0.0
04/12:30pm 36.1 32.9 10.0 20 15.3 E 17 32 9 17 1012.2 - 0.0
04/12:00pm 35.9 31.6 9.3 19 15.4 NE 22 35 12 19 1012.6 1011.4 0.0
04/11:30am 35.6 32.2 9.3 20 15.2 NE 17 28 9 15 1013.1 - 0.0
04/11:00am 35.1 31.3 9.0 20 15.0 NNE 19 32 10 17 1013.5 - 0.0
04/10:30am 34.2 30.6 10.7 24 13.8 ENE 20 30 11 16 1013.9 - 0.0
04/10:00am 33.6 30.0 11.7 26 13.0 ENE 22 35 12 19 1014.3 - 0.0
04/09:30am 33.1 30.6 12.4 28 12.4 NNE 17 30 9 16 1014.1 - 0.0
04/09:00am 31.0 29.4 15.0 38 9.9 NNE 17 22 9 12 1014.0 1012.8 0.0
04/08:30am 30.1 29.1 15.6 41 9.0 N 15 20 8 11 1014.1 - 0.0
04/08:00am 29.2 27.3 15.3 42 8.6 N 19 26 10 14 1013.8 - 0.0
04/07:30am 28.0 26.0 13.9 42 8.5 NE 17 22 9 12 1013.1 - 0.0
04/07:00am 26.5 24.9 12.9 43 8.0 NE 13 17 7 9 1012.7 - 0.0
04/06:30am 24.5 22.5 12.8 48 6.8 NE 15 15 8 8 1012.1 - 0.0
04/06:00am 24.2 23.2 12.4 47 6.8 ENE 9 11 5 6 1011.7 1010.5 0.0
04/05:30am 24.8 23.7 13.0 47 6.9 ENE 11 11 6 6 1011.3 - 0.0
04/05:00am 25.2 24.0 12.7 45 7.3 ENE 11 13 6 7 1010.9 - 0.0
04/04:30am 25.6 23.3 11.7 42 8.0 NE 15 15 8 8 1010.7 - 0.0
04/04:00am 26.2 24.7 11.8 40 8.3 NE 11 13 6 7 1010.6 - 0.0
04/03:30am 27.3 25.3 11.6 37 9.1 NE 13 15 7 8 1010.3 - 0.0
04/03:00am 28.0 25.1 10.9 34 9.8 NE 17 19 9 10 1010.2 1008.9 0.0
04/02:30am 28.4 25.4 10.8 33 10.1 NE 17 20 9 11 1010.3 - 0.0
04/02:00am 28.7 25.7 10.8 33 10.3 NE 17 19 9 10 1010.5 - 0.0
04/01:30am 29.4 26.4 10.6 31 10.8 NE 17 19 9 10 1010.5 - 0.0
04/01:00am 29.7 27.1 10.6 30 11.0 ENE 15 19 8 10 1010.8 - 0.0
04/12:30am 29.6 26.9 10.4 30 11.0 ENE 15 17 8 9 1011.0 - 0.0
04/12:00am 30.5 27.8 10.3 28 11.6 NE 15 17 8 9 1011.0 1009.7 0.0
 
Date/Time
EST
Temp
°C
App
Temp
°C
Dew
Point
Rel
Hum
%
Delta-T
°C
Wind Press
QNH
hPa
Press
MSL
hPa
Rain
since 9 am
mm
Dir
 
Spd
km/h
Gust
km/h
Spd
kts
Gust
kts
03/11:30pm 31.1 28.4 10.5 28 11.9 NE 15 19 8 10 1010.9 - 0.0
03/11:00pm 31.7 28.8 11.0 28 12.1 NE 17 19 9 10 1010.8 - 0.0
03/10:30pm 31.8 29.4 11.4 28 12.0 NE 15 19 8 10 1010.8 - 0.0
03/10:00pm 32.2 29.8 11.5 28 12.2 NE 15 17 8 9 1010.7 - 0.0
03/09:30pm 32.9 30.5 11.4 27 12.7 ENE 15 17 8 9 1010.7 - 0.0
03/09:00pm 32.9 30.6 11.9 27 12.5 ENE 15 15 8 8 1010.6 1009.3 0.0
03/08:30pm 33.2 32.0 12.9 29 12.3 ENE 11 15 6 8 1010.3 - 0.0
03/08:00pm 33.8 32.2 12.8 28 12.7 ENE 13 15 7 8 1009.9 - 0.0
03/07:30pm 35.7 33.7 12.7 25 14.0 E 15 19 8 10 1009.4 - 0.0
03/07:00pm 36.3 34.3 12.7 24 14.4 E 15 19 8 10 1009.0 - 0.0
03/06:30pm 37.4 34.3 12.3 22 15.3 E 20 30 11 16 1008.6 - 0.0
03/06:00pm 37.4 36.6 14.0 24 14.6 E 11 15 6 8 1008.4 1007.2 0.0
03/05:30pm 38.3 34.8 12.3 21 15.9 ESE 22 30 12 16 1008.4 - 0.0
03/05:00pm 38.3 35.5 13.1 22 15.6 ESE 20 35 11 19 1008.4 - 0.0
03/04:30pm 39.3 36.9 12.7 20 16.4 E 17 30 9 16 1008.4 - 0.0
03/04:00pm 38.7 36.6 13.5 22 15.7 NE 17 20 9 11 1008.5 - 0.0
03/03:30pm 38.8 34.9 13.2 21 15.9 NE 26 37 14 20 1008.6 - 0.0
03/03:00pm 38.8 38.2 13.6 22 15.7 NE 9 26 5 14 1009.1 1007.9 0.0
03/02:30pm 38.3 37.8 15.0 25 14.8 E 11 13 6 7 1009.5 - 0.0
03/02:00pm 37.3 34.9 15.5 27 13.9 E 22 32 12 17 1010.5 - 0.0
03/01:30pm 36.9 35.9 15.7 28 13.5 NE 15 28 8 15 1011.1 - 0.0
03/01:00pm 36.4 34.3 16.1 30 13.0 NE 22 32 12 17 1011.4 - 0.0
03/12:30pm 35.9 33.9 16.4 31 12.5 NE 22 32 12 17 1012.1 - 0.0
03/12:00pm 35.8 34.6 17.5 34 11.9 NNE 20 30 11 16 1012.4 1011.2 0.0
03/11:30am 34.6 32.8 17.9 37 10.9 ENE 24 35 13 19 1013.0 - 0.0
03/11:00am 33.6 32.2 18.7 41 9.8 NE 24 37 13 20 1013.3 - 0.0
03/10:30am 33.3 32.4 19.1 43 9.4 NE 22 37 12 20 1013.8 - 0.0

Other Formats:

Comma delimited format used in spreadsheet applications
http://www.bom.gov.au/fwo/IDQ60801/IDQ60801.94346.axf

JavaScript Object Notation format (JSON) in row-major order
http://www.bom.gov.au/fwo/IDQ60801/IDQ60801.94346.json